sensor_id;sensor_type;location;lat;lon;timestamp;P1;durP1;ratioP1;P2;durP2;ratioP2
19521;SDS011;9905;52.126;5.596;2023-10-19T00:02:07;38.42;;;36.33;;
19521;SDS011;9905;52.126;5.596;2023-10-19T00:04:33;40.28;;;37.97;;
19521;SDS011;9905;52.126;5.596;2023-10-19T00:07:01;39.58;;;37.38;;
19521;SDS011;9905;52.126;5.596;2023-10-19T00:09:29;41.25;;;38.75;;
19521;SDS011;9905;52.126;5.596;2023-10-19T00:12:02;41.08;;;38.72;;
19521;SDS011;9905;52.126;5.596;2023-10-19T00:14:29;41.33;;;38.83;;
19521;SDS011;9905;52.126;5.596;2023-10-19T00:16:57;40.58;;;38.28;;
19521;SDS011;9905;52.126;5.596;2023-10-19T00:19:26;42.35;;;39.72;;
19521;SDS011;9905;52.126;5.596;2023-10-19T00:21:54;41.72;;;39.40;;
19521;SDS011;9905;52.126;5.596;2023-10-19T00:24:20;42.45;;;39.85;;
19521;SDS011;9905;52.126;5.596;2023-10-19T00:26:48;43.63;;;40.92;;
19521;SDS011;9905;52.126;5.596;2023-10-19T00:29:18;42.90;;;40.20;;
19521;SDS011;9905;52.126;5.596;2023-10-19T00:31:56;43.90;;;41.15;;
19521;SDS011;9905;52.126;5.596;2023-10-19T00:34:23;44.00;;;41.38;;
19521;SDS011;9905;52.126;5.596;2023-10-19T00:36:51;44.88;;;41.97;;
19521;SDS011;9905;52.126;5.596;2023-10-19T00:39:20;43.78;;;41.17;;
19521;SDS011;9905;52.126;5.596;2023-10-19T00:41:47;44.30;;;41.70;;
19521;SDS011;9905;52.126;5.596;2023-10-19T00:44:15;46.05;;;42.95;;
19521;SDS011;9905;52.126;5.596;2023-10-19T00:46:47;46.90;;;43.97;;
19521;SDS011;9905;52.126;5.596;2023-10-19T00:49:25;46.00;;;43.13;;
19521;SDS011;9905;52.126;5.596;2023-10-19T00:51:54;46.50;;;43.38;;
19521;SDS011;9905;52.126;5.596;2023-10-19T00:54:28;47.00;;;44.10;;
19521;SDS011;9905;52.126;5.596;2023-10-19T00:57:06;49.33;;;46.22;;
19521;SDS011;9905;52.126;5.596;2023-10-19T00:59:33;49.03;;;45.92;;
19521;SDS011;9905;52.126;5.596;2023-10-19T01:02:04;47.13;;;44.10;;
19521;SDS011;9905;52.126;5.596;2023-10-19T01:04:42;48.67;;;45.38;;
19521;SDS011;9905;52.126;5.596;2023-10-19T01:07:12;47.28;;;44.10;;
19521;SDS011;9905;52.126;5.596;2023-10-19T01:09:46;47.90;;;44.72;;
19521;SDS011;9905;52.126;5.596;2023-10-19T01:12:18;49.85;;;46.40;;
19521;SDS011;9905;52.126;5.596;2023-10-19T01:15:01;49.95;;;46.58;;
19521;SDS011;9905;52.126;5.596;2023-10-19T01:17:31;49.67;;;46.47;;
19521;SDS011;9905;52.126;5.596;2023-10-19T01:19:59;50.08;;;46.80;;
19521;SDS011;9905;52.126;5.596;2023-10-19T01:25:31;50.00;;;46.60;;
19521;SDS011;9905;52.126;5.596;2023-10-19T01:28:01;49.55;;;46.35;;
19521;SDS011;9905;52.126;5.596;2023-10-19T01:30:33;50.35;;;47.10;;
19521;SDS011;9905;52.126;5.596;2023-10-19T01:33:01;49.97;;;46.78;;
19521;SDS011;9905;52.126;5.596;2023-10-19T01:35:29;50.67;;;47.17;;
19521;SDS011;9905;52.126;5.596;2023-10-19T01:38:17;51.00;;;47.67;;
19521;SDS011;9905;52.126;5.596;2023-10-19T01:40:43;51.58;;;48.25;;
19521;SDS011;9905;52.126;5.596;2023-10-19T01:43:13;52.97;;;49.53;;
19521;SDS011;9905;52.126;5.596;2023-10-19T01:45:46;53.00;;;49.38;;
19521;SDS011;9905;52.126;5.596;2023-10-19T01:48:13;53.55;;;49.95;;
19521;SDS011;9905;52.126;5.596;2023-10-19T01:50:41;52.70;;;49.00;;
19521;SDS011;9905;52.126;5.596;2023-10-19T01:53:07;54.00;;;50.05;;
19521;SDS011;9905;52.126;5.596;2023-10-19T01:55:41;54.42;;;50.42;;
19521;SDS011;9905;52.126;5.596;2023-10-19T01:58:09;52.63;;;48.97;;
19521;SDS011;9905;52.126;5.596;2023-10-19T02:00:35;53.80;;;50.05;;
19521;SDS011;9905;52.126;5.596;2023-10-19T02:03:07;55.50;;;50.97;;
19521;SDS011;9905;52.126;5.596;2023-10-19T02:05:33;54.88;;;50.50;;
19521;SDS011;9905;52.126;5.596;2023-10-19T02:08:05;54.10;;;50.30;;
19521;SDS011;9905;52.126;5.596;2023-10-19T02:10:32;54.38;;;50.67;;
19521;SDS011;9905;52.126;5.596;2023-10-19T02:13:01;55.30;;;51.30;;
19521;SDS011;9905;52.126;5.596;2023-10-19T02:15:32;56.20;;;52.10;;
19521;SDS011;9905;52.126;5.596;2023-10-19T02:18:00;55.00;;;50.92;;
19521;SDS011;9905;52.126;5.596;2023-10-19T02:20:27;55.00;;;50.80;;
19521;SDS011;9905;52.126;5.596;2023-10-19T02:22:54;56.20;;;52.30;;
19521;SDS011;9905;52.126;5.596;2023-10-19T02:25:22;54.78;;;50.75;;
19521;SDS011;9905;52.126;5.596;2023-10-19T02:27:50;55.33;;;51.33;;
19521;SDS011;9905;52.126;5.596;2023-10-19T02:30:18;55.13;;;51.22;;
19521;SDS011;9905;52.126;5.596;2023-10-19T02:32:44;56.45;;;52.58;;
19521;SDS011;9905;52.126;5.596;2023-10-19T02:35:12;54.80;;;50.92;;
19521;SDS011;9905;52.126;5.596;2023-10-19T02:37:39;54.53;;;50.72;;
19521;SDS011;9905;52.126;5.596;2023-10-19T02:40:06;54.15;;;50.22;;
19521;SDS011;9905;52.126;5.596;2023-10-19T02:42:37;53.63;;;49.72;;
19521;SDS011;9905;52.126;5.596;2023-10-19T02:45:05;55.67;;;51.72;;
19521;SDS011;9905;52.126;5.596;2023-10-19T02:47:34;54.05;;;50.22;;
19521;SDS011;9905;52.126;5.596;2023-10-19T02:50:01;55.25;;;51.22;;
19521;SDS011;9905;52.126;5.596;2023-10-19T02:52:35;56.00;;;51.90;;
19521;SDS011;9905;52.126;5.596;2023-10-19T02:55:02;54.85;;;51.13;;
19521;SDS011;9905;52.126;5.596;2023-10-19T02:57:29;54.95;;;51.17;;
19521;SDS011;9905;52.126;5.596;2023-10-19T02:59:57;53.70;;;49.80;;
19521;SDS011;9905;52.126;5.596;2023-10-19T03:02:23;56.00;;;51.88;;
19521;SDS011;9905;52.126;5.596;2023-10-19T03:04:53;56.05;;;52.13;;
19521;SDS011;9905;52.126;5.596;2023-10-19T03:07:20;55.67;;;51.67;;
19521;SDS011;9905;52.126;5.596;2023-10-19T03:09:46;54.95;;;51.03;;
19521;SDS011;9905;52.126;5.596;2023-10-19T03:12:18;54.13;;;50.50;;
19521;SDS011;9905;52.126;5.596;2023-10-19T03:14:45;55.13;;;51.15;;
19521;SDS011;9905;52.126;5.596;2023-10-19T03:17:13;56.45;;;52.60;;
19521;SDS011;9905;52.126;5.596;2023-10-19T03:19:39;54.42;;;50.70;;
19521;SDS011;9905;52.126;5.596;2023-10-19T03:22:08;54.60;;;50.30;;
19521;SDS011;9905;52.126;5.596;2023-10-19T03:24:36;55.13;;;51.15;;
19521;SDS011;9905;52.126;5.596;2023-10-19T03:27:06;54.20;;;50.70;;
19521;SDS011;9905;52.126;5.596;2023-10-19T03:29:37;54.13;;;50.40;;
19521;SDS011;9905;52.126;5.596;2023-10-19T03:32:05;55.28;;;51.50;;
19521;SDS011;9905;52.126;5.596;2023-10-19T03:34:32;53.67;;;49.97;;
19521;SDS011;9905;52.126;5.596;2023-10-19T03:36:59;53.47;;;49.90;;
19521;SDS011;9905;52.126;5.596;2023-10-19T03:39:32;52.85;;;49.33;;
19521;SDS011;9905;52.126;5.596;2023-10-19T03:42:00;55.80;;;51.60;;
19521;SDS011;9905;52.126;5.596;2023-10-19T03:44:31;53.03;;;49.33;;
19521;SDS011;9905;52.126;5.596;2023-10-19T03:47:08;53.85;;;50.17;;
19521;SDS011;9905;52.126;5.596;2023-10-19T03:49:37;55.17;;;51.25;;
19521;SDS011;9905;52.126;5.596;2023-10-19T03:52:05;53.75;;;50.35;;
19521;SDS011;9905;52.126;5.596;2023-10-19T03:54:47;53.35;;;49.90;;
19521;SDS011;9905;52.126;5.596;2023-10-19T03:57:15;53.22;;;49.83;;
19521;SDS011;9905;52.126;5.596;2023-10-19T03:59:47;52.45;;;49.20;;
19521;SDS011;9905;52.126;5.596;2023-10-19T04:02:17;53.08;;;49.65;;
19521;SDS011;9905;52.126;5.596;2023-10-19T04:04:45;52.85;;;49.47;;
19521;SDS011;9905;52.126;5.596;2023-10-19T04:07:14;53.55;;;50.35;;
19521;SDS011;9905;52.126;5.596;2023-10-19T04:09:45;52.00;;;48.97;;
19521;SDS011;9905;52.126;5.596;2023-10-19T04:12:24;51.85;;;48.42;;
19521;SDS011;9905;52.126;5.596;2023-10-19T04:14:53;52.15;;;48.63;;
19521;SDS011;9905;52.126;5.596;2023-10-19T04:17:20;51.28;;;48.25;;
19521;SDS011;9905;52.126;5.596;2023-10-19T04:19:48;51.22;;;47.92;;
19521;SDS011;9905;52.126;5.596;2023-10-19T04:22:16;50.72;;;47.72;;
19521;SDS011;9905;52.126;5.596;2023-10-19T04:24:49;51.28;;;48.28;;
19521;SDS011;9905;52.126;5.596;2023-10-19T04:27:16;52.15;;;48.80;;
19521;SDS011;9905;52.126;5.596;2023-10-19T04:29:46;51.28;;;48.17;;
19521;SDS011;9905;52.126;5.596;2023-10-19T04:32:14;53.75;;;50.75;;
19521;SDS011;9905;52.126;5.596;2023-10-19T04:34:49;51.92;;;49.03;;
19521;SDS011;9905;52.126;5.596;2023-10-19T04:37:16;49.78;;;47.17;;
19521;SDS011;9905;52.126;5.596;2023-10-19T04:39:44;52.20;;;49.15;;
19521;SDS011;9905;52.126;5.596;2023-10-19T04:42:12;52.40;;;49.67;;
19521;SDS011;9905;52.126;5.596;2023-10-19T04:44:39;50.22;;;47.40;;
19521;SDS011;9905;52.126;5.596;2023-10-19T04:47:06;52.40;;;49.60;;
19521;SDS011;9905;52.126;5.596;2023-10-19T04:49:33;51.50;;;48.75;;
19521;SDS011;9905;52.126;5.596;2023-10-19T04:51:59;51.58;;;48.58;;
19521;SDS011;9905;52.126;5.596;2023-10-19T04:54:28;49.75;;;47.05;;
19521;SDS011;9905;52.126;5.596;2023-10-19T04:56:55;49.15;;;46.55;;
19521;SDS011;9905;52.126;5.596;2023-10-19T04:59:23;49.10;;;46.60;;
19521;SDS011;9905;52.126;5.596;2023-10-19T05:01:49;49.85;;;47.20;;
19521;SDS011;9905;52.126;5.596;2023-10-19T05:04:17;49.75;;;47.03;;
19521;SDS011;9905;52.126;5.596;2023-10-19T05:06:43;47.75;;;45.28;;
19521;SDS011;9905;52.126;5.596;2023-10-19T05:09:10;47.90;;;45.58;;
19521;SDS011;9905;52.126;5.596;2023-10-19T05:11:37;48.00;;;45.22;;
19521;SDS011;9905;52.126;5.596;2023-10-19T05:14:04;49.55;;;46.70;;
19521;SDS011;9905;52.126;5.596;2023-10-19T05:16:32;49.65;;;47.13;;
19521;SDS011;9905;52.126;5.596;2023-10-19T05:18:59;50.25;;;47.45;;
19521;SDS011;9905;52.126;5.596;2023-10-19T05:21:26;46.90;;;44.60;;
19521;SDS011;9905;52.126;5.596;2023-10-19T05:23:55;48.33;;;45.75;;
19521;SDS011;9905;52.126;5.596;2023-10-19T05:26:22;46.90;;;44.60;;
19521;SDS011;9905;52.126;5.596;2023-10-19T05:28:48;47.95;;;45.55;;
19521;SDS011;9905;52.126;5.596;2023-10-19T05:31:15;48.17;;;45.40;;
19521;SDS011;9905;52.126;5.596;2023-10-19T05:33:43;48.10;;;45.60;;
19521;SDS011;9905;52.126;5.596;2023-10-19T05:36:13;47.25;;;44.75;;
19521;SDS011;9905;52.126;5.596;2023-10-19T05:38:40;48.08;;;45.38;;
19521;SDS011;9905;52.126;5.596;2023-10-19T05:41:06;49.47;;;46.65;;
19521;SDS011;9905;52.126;5.596;2023-10-19T05:43:33;48.20;;;45.67;;
19521;SDS011;9905;52.126;5.596;2023-10-19T05:46:00;48.97;;;46.20;;
19521;SDS011;9905;52.126;5.596;2023-10-19T05:48:27;48.97;;;46.08;;
19521;SDS011;9905;52.126;5.596;2023-10-19T05:50:55;47.97;;;45.58;;
19521;SDS011;9905;52.126;5.596;2023-10-19T05:53:22;48.55;;;46.05;;
19521;SDS011;9905;52.126;5.596;2023-10-19T05:55:48;48.40;;;45.28;;
19521;SDS011;9905;52.126;5.596;2023-10-19T05:58:15;48.72;;;46.10;;
19521;SDS011;9905;52.126;5.596;2023-10-19T06:00:42;49.58;;;47.08;;
19521;SDS011;9905;52.126;5.596;2023-10-19T06:03:09;49.10;;;46.60;;
19521;SDS011;9905;52.126;5.596;2023-10-19T06:05:35;47.35;;;44.55;;
19521;SDS011;9905;52.126;5.596;2023-10-19T06:08:04;48.53;;;46.08;;
19521;SDS011;9905;52.126;5.596;2023-10-19T06:10:31;48.85;;;45.83;;
19521;SDS011;9905;52.126;5.596;2023-10-19T06:12:57;47.13;;;44.30;;
19521;SDS011;9905;52.126;5.596;2023-10-19T06:15:24;46.70;;;44.30;;
19521;SDS011;9905;52.126;5.596;2023-10-19T06:17:53;47.85;;;45.25;;
19521;SDS011;9905;52.126;5.596;2023-10-19T06:20:20;49.13;;;46.28;;
19521;SDS011;9905;52.126;5.596;2023-10-19T06:22:51;46.40;;;44.17;;
19521;SDS011;9905;52.126;5.596;2023-10-19T06:25:20;44.78;;;42.53;;
19521;SDS011;9905;52.126;5.596;2023-10-19T06:27:48;48.63;;;45.95;;
19521;SDS011;9905;52.126;5.596;2023-10-19T06:30:16;46.00;;;43.60;;
19521;SDS011;9905;52.126;5.596;2023-10-19T06:32:45;47.42;;;44.78;;
19521;SDS011;9905;52.126;5.596;2023-10-19T06:35:13;47.13;;;44.55;;
19521;SDS011;9905;52.126;5.596;2023-10-19T06:37:40;48.33;;;45.63;;
19521;SDS011;9905;52.126;5.596;2023-10-19T06:40:07;48.05;;;45.42;;
19521;SDS011;9905;52.126;5.596;2023-10-19T06:42:37;47.90;;;45.42;;
19521;SDS011;9905;52.126;5.596;2023-10-19T06:45:05;47.55;;;45.08;;
19521;SDS011;9905;52.126;5.596;2023-10-19T06:47:33;48.13;;;45.25;;
19521;SDS011;9905;52.126;5.596;2023-10-19T06:50:02;46.58;;;44.17;;
19521;SDS011;9905;52.126;5.596;2023-10-19T06:52:32;46.60;;;44.05;;
19521;SDS011;9905;52.126;5.596;2023-10-19T06:55:01;46.65;;;44.03;;
19521;SDS011;9905;52.126;5.596;2023-10-19T06:57:28;46.35;;;43.83;;
19521;SDS011;9905;52.126;5.596;2023-10-19T06:59:56;47.28;;;44.67;;
19521;SDS011;9905;52.126;5.596;2023-10-19T07:02:23;47.33;;;44.83;;
19521;SDS011;9905;52.126;5.596;2023-10-19T07:04:51;47.47;;;44.67;;
19521;SDS011;9905;52.126;5.596;2023-10-19T07:07:18;46.50;;;43.92;;
19521;SDS011;9905;52.126;5.596;2023-10-19T07:09:44;45.40;;;43.10;;
19521;SDS011;9905;52.126;5.596;2023-10-19T07:12:11;44.25;;;41.92;;
19521;SDS011;9905;52.126;5.596;2023-10-19T07:14:38;46.38;;;44.08;;
19521;SDS011;9905;52.126;5.596;2023-10-19T07:17:07;46.70;;;43.95;;
19521;SDS011;9905;52.126;5.596;2023-10-19T07:19:34;46.95;;;44.45;;
19521;SDS011;9905;52.126;5.596;2023-10-19T07:22:01;49.65;;;47.13;;
19521;SDS011;9905;52.126;5.596;2023-10-19T07:24:29;45.97;;;43.35;;
19521;SDS011;9905;52.126;5.596;2023-10-19T07:26:56;48.60;;;46.13;;
19521;SDS011;9905;52.126;5.596;2023-10-19T07:29:29;46.05;;;43.35;;
19521;SDS011;9905;52.126;5.596;2023-10-19T07:31:58;46.97;;;44.67;;
19521;SDS011;9905;52.126;5.596;2023-10-19T07:34:26;45.63;;;43.42;;
19521;SDS011;9905;52.126;5.596;2023-10-19T07:36:54;46.00;;;43.70;;
19521;SDS011;9905;52.126;5.596;2023-10-19T07:39:24;47.28;;;44.78;;
19521;SDS011;9905;52.126;5.596;2023-10-19T07:41:51;46.88;;;44.15;;
19521;SDS011;9905;52.126;5.596;2023-10-19T07:44:18;45.35;;;42.90;;
19521;SDS011;9905;52.126;5.596;2023-10-19T07:46:45;45.35;;;42.92;;
19521;SDS011;9905;52.126;5.596;2023-10-19T07:49:11;44.95;;;42.50;;
19521;SDS011;9905;52.126;5.596;2023-10-19T07:51:44;45.20;;;42.88;;
19521;SDS011;9905;52.126;5.596;2023-10-19T07:54:12;45.28;;;42.90;;
19521;SDS011;9905;52.126;5.596;2023-10-19T07:56:39;44.70;;;42.33;;
19521;SDS011;9905;52.126;5.596;2023-10-19T07:59:05;42.97;;;40.88;;
19521;SDS011;9905;52.126;5.596;2023-10-19T08:01:33;46.42;;;43.90;;
19521;SDS011;9905;52.126;5.596;2023-10-19T08:03:59;44.63;;;42.25;;
19521;SDS011;9905;52.126;5.596;2023-10-19T08:06:26;43.72;;;41.30;;
19521;SDS011;9905;52.126;5.596;2023-10-19T08:08:55;44.42;;;41.97;;
19521;SDS011;9905;52.126;5.596;2023-10-19T08:11:23;45.92;;;43.22;;
19521;SDS011;9905;52.126;5.596;2023-10-19T08:13:49;47.47;;;44.83;;
19521;SDS011;9905;52.126;5.596;2023-10-19T08:16:16;44.17;;;42.13;;
19521;SDS011;9905;52.126;5.596;2023-10-19T08:18:43;43.38;;;40.97;;
19521;SDS011;9905;52.126;5.596;2023-10-19T08:21:10;45.28;;;42.70;;
19521;SDS011;9905;52.126;5.596;2023-10-19T08:23:37;44.35;;;41.83;;
19521;SDS011;9905;52.126;5.596;2023-10-19T08:26:06;43.88;;;41.70;;
19521;SDS011;9905;52.126;5.596;2023-10-19T08:28:33;43.70;;;41.45;;
19521;SDS011;9905;52.126;5.596;2023-10-19T08:31:00;44.95;;;42.38;;
19521;SDS011;9905;52.126;5.596;2023-10-19T08:33:27;41.92;;;39.42;;
19521;SDS011;9905;52.126;5.596;2023-10-19T08:35:54;42.58;;;40.28;;
19521;SDS011;9905;52.126;5.596;2023-10-19T08:38:22;44.90;;;42.30;;
19521;SDS011;9905;52.126;5.596;2023-10-19T08:40:49;43.15;;;40.83;;
19521;SDS011;9905;52.126;5.596;2023-10-19T08:43:18;43.13;;;40.83;;
19521;SDS011;9905;52.126;5.596;2023-10-19T08:45:46;43.88;;;41.28;;
19521;SDS011;9905;52.126;5.596;2023-10-19T08:48:14;44.28;;;41.55;;
19521;SDS011;9905;52.126;5.596;2023-10-19T08:50:40;43.95;;;41.50;;
19521;SDS011;9905;52.126;5.596;2023-10-19T08:53:08;44.47;;;42.10;;
19521;SDS011;9905;52.126;5.596;2023-10-19T08:55:38;44.30;;;41.78;;
19521;SDS011;9905;52.126;5.596;2023-10-19T08:58:05;44.70;;;42.10;;
19521;SDS011;9905;52.126;5.596;2023-10-19T09:00:43;43.75;;;41.53;;
19521;SDS011;9905;52.126;5.596;2023-10-19T09:03:13;46.25;;;43.40;;
19521;SDS011;9905;52.126;5.596;2023-10-19T09:05:41;46.78;;;44.05;;
19521;SDS011;9905;52.126;5.596;2023-10-19T09:08:13;43.80;;;41.30;;
19521;SDS011;9905;52.126;5.596;2023-10-19T09:10:42;43.45;;;40.95;;
19521;SDS011;9905;52.126;5.596;2023-10-19T09:13:11;43.40;;;40.92;;
19521;SDS011;9905;52.126;5.596;2023-10-19T09:15:40;42.42;;;39.97;;
19521;SDS011;9905;52.126;5.596;2023-10-19T09:18:15;43.20;;;40.72;;
19521;SDS011;9905;52.126;5.596;2023-10-19T09:20:44;42.70;;;40.20;;
19521;SDS011;9905;52.126;5.596;2023-10-19T09:23:19;41.97;;;39.78;;
19521;SDS011;9905;52.126;5.596;2023-10-19T09:25:47;42.42;;;39.60;;
19521;SDS011;9905;52.126;5.596;2023-10-19T09:28:14;45.50;;;42.90;;
19521;SDS011;9905;52.126;5.596;2023-10-19T09:30:42;43.28;;;40.58;;
19521;SDS011;9905;52.126;5.596;2023-10-19T09:33:10;44.72;;;42.38;;
19521;SDS011;9905;52.126;5.596;2023-10-19T09:35:40;42.28;;;40.08;;
19521;SDS011;9905;52.126;5.596;2023-10-19T09:38:08;39.70;;;37.55;;
19521;SDS011;9905;52.126;5.596;2023-10-19T09:40:35;36.75;;;34.72;;
19521;SDS011;9905;52.126;5.596;2023-10-19T09:43:04;34.80;;;32.72;;
19521;SDS011;9905;52.126;5.596;2023-10-19T09:45:35;34.35;;;32.35;;
19521;SDS011;9905;52.126;5.596;2023-10-19T09:48:07;31.95;;;30.02;;
19521;SDS011;9905;52.126;5.596;2023-10-19T09:50:43;31.38;;;29.73;;
19521;SDS011;9905;52.126;5.596;2023-10-19T09:53:13;31.33;;;29.55;;
19521;SDS011;9905;52.126;5.596;2023-10-19T09:55:40;29.80;;;28.13;;
19521;SDS011;9905;52.126;5.596;2023-10-19T09:58:10;29.60;;;27.88;;
19521;SDS011;9905;52.126;5.596;2023-10-19T10:00:42;29.00;;;27.55;;
19521;SDS011;9905;52.126;5.596;2023-10-19T10:06:09;27.40;;;25.73;;
19521;SDS011;9905;52.126;5.596;2023-10-19T10:08:39;26.05;;;24.40;;
19521;SDS011;9905;52.126;5.596;2023-10-19T10:11:17;24.30;;;22.90;;
19521;SDS011;9905;52.126;5.596;2023-10-19T10:13:46;21.13;;;19.63;;
19521;SDS011;9905;52.126;5.596;2023-10-19T10:16:17;20.77;;;19.25;;
19521;SDS011;9905;52.126;5.596;2023-10-19T10:18:45;18.08;;;16.98;;
19521;SDS011;9905;52.126;5.596;2023-10-19T10:21:17;17.77;;;16.60;;
19521;SDS011;9905;52.126;5.596;2023-10-19T10:23:49;17.63;;;16.42;;
19521;SDS011;9905;52.126;5.596;2023-10-19T10:26:17;16.45;;;15.32;;
19521;SDS011;9905;52.126;5.596;2023-10-19T10:29:06;16.23;;;15.07;;
19521;SDS011;9905;52.126;5.596;2023-10-19T10:31:40;16.15;;;15.05;;
19521;SDS011;9905;52.126;5.596;2023-10-19T10:34:08;15.18;;;14.00;;
19521;SDS011;9905;52.126;5.596;2023-10-19T10:39:25;15.45;;;14.23;;
19521;SDS011;9905;52.126;5.596;2023-10-19T10:41:55;14.82;;;13.77;;
19521;SDS011;9905;52.126;5.596;2023-10-19T10:44:35;14.88;;;13.27;;
19521;SDS011;9905;52.126;5.596;2023-10-19T10:47:03;16.20;;;15.13;;
19521;SDS011;9905;52.126;5.596;2023-10-19T10:49:33;15.07;;;13.95;;
19521;SDS011;9905;52.126;5.596;2023-10-19T10:52:01;13.05;;;12.20;;
19521;SDS011;9905;52.126;5.596;2023-10-19T10:54:27;12.52;;;11.80;;
19521;SDS011;9905;52.126;5.596;2023-10-19T10:56:54;12.90;;;12.20;;
19521;SDS011;9905;52.126;5.596;2023-10-19T10:59:21;12.77;;;11.98;;
19521;SDS011;9905;52.126;5.596;2023-10-19T11:01:48;12.55;;;11.65;;
19521;SDS011;9905;52.126;5.596;2023-10-19T11:04:15;14.15;;;12.25;;
19521;SDS011;9905;52.126;5.596;2023-10-19T11:06:45;13.43;;;12.55;;
19521;SDS011;9905;52.126;5.596;2023-10-19T11:09:17;13.70;;;12.93;;
19521;SDS011;9905;52.126;5.596;2023-10-19T11:11:44;13.18;;;12.00;;
19521;SDS011;9905;52.126;5.596;2023-10-19T11:14:11;13.55;;;12.38;;
19521;SDS011;9905;52.126;5.596;2023-10-19T11:16:38;12.80;;;11.57;;
19521;SDS011;9905;52.126;5.596;2023-10-19T11:19:05;12.45;;;11.52;;
19521;SDS011;9905;52.126;5.596;2023-10-19T11:21:32;12.10;;;11.35;;
19521;SDS011;9905;52.126;5.596;2023-10-19T11:23:59;12.95;;;11.63;;
19521;SDS011;9905;52.126;5.596;2023-10-19T11:26:28;12.45;;;11.93;;
19521;SDS011;9905;52.126;5.596;2023-10-19T11:28:58;10.75;;;10.25;;
19521;SDS011;9905;52.126;5.596;2023-10-19T11:31:26;11.32;;;10.55;;
19521;SDS011;9905;52.126;5.596;2023-10-19T11:34:02;11.30;;;10.63;;
19521;SDS011;9905;52.126;5.596;2023-10-19T11:36:30;11.13;;;10.32;;
19521;SDS011;9905;52.126;5.596;2023-10-19T11:38:56;11.32;;;10.30;;
19521;SDS011;9905;52.126;5.596;2023-10-19T11:41:23;10.40;;;9.48;;
19521;SDS011;9905;52.126;5.596;2023-10-19T11:43:51;13.63;;;10.77;;
19521;SDS011;9905;52.126;5.596;2023-10-19T11:46:18;12.50;;;11.50;;
19521;SDS011;9905;52.126;5.596;2023-10-19T11:48:47;12.82;;;11.77;;
19521;SDS011;9905;52.126;5.596;2023-10-19T11:51:14;12.63;;;11.48;;
19521;SDS011;9905;52.126;5.596;2023-10-19T11:53:41;11.13;;;10.20;;
19521;SDS011;9905;52.126;5.596;2023-10-19T11:56:09;12.00;;;10.85;;
19521;SDS011;9905;52.126;5.596;2023-10-19T11:58:38;10.45;;;9.35;;
19521;SDS011;9905;52.126;5.596;2023-10-19T12:01:08;9.63;;;9.00;;
19521;SDS011;9905;52.126;5.596;2023-10-19T12:03:37;12.65;;;9.73;;
19521;SDS011;9905;52.126;5.596;2023-10-19T12:06:05;9.40;;;8.55;;
19521;SDS011;9905;52.126;5.596;2023-10-19T12:08:32;10.20;;;9.25;;
19521;SDS011;9905;52.126;5.596;2023-10-19T12:10:59;8.85;;;8.23;;
19521;SDS011;9905;52.126;5.596;2023-10-19T12:13:28;8.38;;;7.75;;
19521;SDS011;9905;52.126;5.596;2023-10-19T12:15:56;10.93;;;8.55;;
19521;SDS011;9905;52.126;5.596;2023-10-19T12:18:24;7.53;;;7.03;;
19521;SDS011;9905;52.126;5.596;2023-10-19T12:20:53;10.23;;;7.40;;
19521;SDS011;9905;52.126;5.596;2023-10-19T12:23:22;9.27;;;8.15;;
19521;SDS011;9905;52.126;5.596;2023-10-19T12:25:49;8.45;;;7.75;;
19521;SDS011;9905;52.126;5.596;2023-10-19T12:28:16;8.68;;;7.68;;
19521;SDS011;9905;52.126;5.596;2023-10-19T12:30:43;8.65;;;7.47;;
19521;SDS011;9905;52.126;5.596;2023-10-19T12:33:10;8.82;;;8.07;;
19521;SDS011;9905;52.126;5.596;2023-10-19T12:35:41;8.68;;;6.45;;
19521;SDS011;9905;52.126;5.596;2023-10-19T12:38:10;8.43;;;7.03;;
19521;SDS011;9905;52.126;5.596;2023-10-19T12:40:42;11.77;;;8.05;;
19521;SDS011;9905;52.126;5.596;2023-10-19T12:43:11;11.13;;;7.68;;
19521;SDS011;9905;52.126;5.596;2023-10-19T12:45:39;6.53;;;5.97;;
19521;SDS011;9905;52.126;5.596;2023-10-19T12:48:06;8.80;;;6.82;;
19521;SDS011;9905;52.126;5.596;2023-10-19T12:50:35;10.45;;;7.60;;
19521;SDS011;9905;52.126;5.596;2023-10-19T12:53:04;7.38;;;6.65;;
19521;SDS011;9905;52.126;5.596;2023-10-19T12:55:32;7.68;;;6.90;;
19521;SDS011;9905;52.126;5.596;2023-10-19T12:57:59;9.90;;;6.57;;
19521;SDS011;9905;52.126;5.596;2023-10-19T13:00:32;8.52;;;6.97;;
19521;SDS011;9905;52.126;5.596;2023-10-19T13:03:06;7.50;;;6.70;;
19521;SDS011;9905;52.126;5.596;2023-10-19T13:05:33;6.55;;;6.10;;
19521;SDS011;9905;52.126;5.596;2023-10-19T13:08:02;8.20;;;6.45;;
19521;SDS011;9905;52.126;5.596;2023-10-19T13:10:32;7.05;;;6.38;;
19521;SDS011;9905;52.126;5.596;2023-10-19T13:13:02;6.80;;;6.15;;
19521;SDS011;9905;52.126;5.596;2023-10-19T13:15:31;7.72;;;6.93;;
19521;SDS011;9905;52.126;5.596;2023-10-19T13:17:59;9.93;;;6.57;;
19521;SDS011;9905;52.126;5.596;2023-10-19T13:20:26;6.85;;;6.35;;
19521;SDS011;9905;52.126;5.596;2023-10-19T13:22:58;7.68;;;6.75;;
19521;SDS011;9905;52.126;5.596;2023-10-19T13:25:25;7.95;;;7.25;;
19521;SDS011;9905;52.126;5.596;2023-10-19T13:28:06;7.78;;;7.18;;
19521;SDS011;9905;52.126;5.596;2023-10-19T13:30:37;8.27;;;7.07;;
19521;SDS011;9905;52.126;5.596;2023-10-19T13:33:05;8.55;;;7.60;;
19521;SDS011;9905;52.126;5.596;2023-10-19T13:35:34;9.15;;;8.45;;
19521;SDS011;9905;52.126;5.596;2023-10-19T13:38:01;10.15;;;9.15;;
19521;SDS011;9905;52.126;5.596;2023-10-19T13:40:29;10.10;;;9.18;;
19521;SDS011;9905;52.126;5.596;2023-10-19T13:42:56;10.68;;;9.63;;
19521;SDS011;9905;52.126;5.596;2023-10-19T13:45:24;10.25;;;9.27;;
19521;SDS011;9905;52.126;5.596;2023-10-19T13:47:52;10.77;;;9.95;;
19521;SDS011;9905;52.126;5.596;2023-10-19T13:50:21;11.32;;;10.45;;
19521;SDS011;9905;52.126;5.596;2023-10-19T13:52:48;11.98;;;11.02;;
19521;SDS011;9905;52.126;5.596;2023-10-19T13:55:15;12.05;;;11.23;;
19521;SDS011;9905;52.126;5.596;2023-10-19T13:57:43;12.27;;;11.27;;
19521;SDS011;9905;52.126;5.596;2023-10-19T14:00:10;12.20;;;11.15;;
19521;SDS011;9905;52.126;5.596;2023-10-19T14:02:45;12.25;;;11.30;;
19521;SDS011;9905;52.126;5.596;2023-10-19T14:05:12;13.68;;;12.55;;
19521;SDS011;9905;52.126;5.596;2023-10-19T14:07:40;12.15;;;11.27;;
19521;SDS011;9905;52.126;5.596;2023-10-19T14:10:08;13.40;;;12.35;;
19521;SDS011;9905;52.126;5.596;2023-10-19T14:12:37;13.55;;;12.63;;
19521;SDS011;9905;52.126;5.596;2023-10-19T14:15:07;11.98;;;11.18;;
19521;SDS011;9905;52.126;5.596;2023-10-19T14:17:37;13.00;;;11.10;;
19521;SDS011;9905;52.126;5.596;2023-10-19T14:20:05;11.05;;;10.18;;
19521;SDS011;9905;52.126;5.596;2023-10-19T14:22:37;11.68;;;10.68;;
19521;SDS011;9905;52.126;5.596;2023-10-19T14:25:04;11.70;;;10.77;;
19521;SDS011;9905;52.126;5.596;2023-10-19T14:27:35;12.30;;;11.23;;
19521;SDS011;9905;52.126;5.596;2023-10-19T14:30:02;11.57;;;10.43;;
19521;SDS011;9905;52.126;5.596;2023-10-19T14:32:30;11.40;;;10.73;;
19521;SDS011;9905;52.126;5.596;2023-10-19T14:34:56;12.48;;;11.55;;
19521;SDS011;9905;52.126;5.596;2023-10-19T14:37:25;12.55;;;11.55;;
19521;SDS011;9905;52.126;5.596;2023-10-19T14:39:52;12.80;;;11.80;;
19521;SDS011;9905;52.126;5.596;2023-10-19T14:42:19;12.02;;;11.23;;
19521;SDS011;9905;52.126;5.596;2023-10-19T14:44:46;12.70;;;11.75;;
19521;SDS011;9905;52.126;5.596;2023-10-19T14:47:12;12.93;;;11.65;;
19521;SDS011;9905;52.126;5.596;2023-10-19T14:49:39;11.85;;;11.05;;
19521;SDS011;9905;52.126;5.596;2023-10-19T14:52:06;14.13;;;13.20;;
19521;SDS011;9905;52.126;5.596;2023-10-19T14:54:34;11.68;;;11.13;;
19521;SDS011;9905;52.126;5.596;2023-10-19T14:57:01;13.48;;;12.85;;